Airfield :
LOGIN :

Register | Disclaimer

   EN    FR    IT 

 










Legend :    VFR   Marginal VFR   IFR   Intensive IFR   Very Intensive IFR
Visi :
Ceiling :
>= 8 km
>= 3000ft
5 to 8 km
1000 to 3000 ft
1500m to 5 km
500 to 1000 ft
800 to 1500m
200 to 500 ft
< 800m
< 200 ft
Symbols :   Thunderstorms  Fog  Heavy snow  Heavy precipitations  Wind > 20 kt
SIGMETs :     Misc.  Thunderstorms  Icing  Turbulence  Mountain Waves  Volcanic Ashes







- Airport Elevation : 72 ft
- IATA code : UDE


EHVK - Volkel Airbase

CURRENT METAR :
  • 190325Z AUTO 05006KT 9999 OVC042 09/07 Q1025 BLU

EXPIRED METARs :
  • 190255Z AUTO 05006KT 9999 OVC042 09/07 Q1025 BLU
  • 190225Z AUTO 05008KT 9999 OVC043 09/07 Q1025 BLU
  • 190155Z AUTO 04006KT 9999 BKN042 OVC290 09/07 Q1024 BLU
  • 190125Z AUTO 05007KT 020V080 9999 NCD 09/07 Q1024 BLU
  • 190055Z AUTO 05007KT 9999 BKN042 09/07 Q1025 BLU
  • 190025Z AUTO 04006KT 020V080 9999 OVC041 10/07 Q1025 BLU

Expired Forecast.
No reported NOTAMs for that airfield.



MET'MAP, your aeronautical weather chart ! - Copyright ORBIFLY December 2007 - Disclaimer

ORBIFLY MET'MAP TEAM :

Programming & Development : Alexandra Zaïnal
Concept & Development : Baudouin d'Aumeries
Co-Development & Prog : Marc-Olivier Méhu
Technical & hardware support : Manuel Goepfert

Contact : metmap@orbifly.com




SOURCES & CREDITS :

   NOAA